Time;durP1;ratioP1;P1;durP2;ratioP2;P2;SDS_P1;SDS_P2;PMS_P1;PMS_P2;Temp;Humidity;BMP_temperature;BMP_pressure;BME280_temperature;BME280_humidity;BME280_pressure;Samples;Min_cycle;Max_cycle;Signal;HPM_P1;HPM_P2
2021/12/31 00:00:46;;;;;;;9.45;3.60;;;14.50;83.30;;;;;;6124991;23;93221;-72
2021/12/31 00:03:17;;;;;;;10.25;3.42;;;14.40;83.30;;;;;;6125060;23;92892;-72
2021/12/31 00:05:44;;;;;;;12.23;3.60;;;14.40;83.20;;;;;;6098400;23;96236;-72
2021/12/31 00:08:11;;;;;;;10.25;3.20;;;14.40;83.10;;;;;;6147723;22;94034;-72
2021/12/31 00:10:39;;;;;;;13.10;3.17;;;14.40;83.20;;;;;;6123791;23;92453;-77
2021/12/31 00:13:06;;;;;;;9.68;3.10;;;14.50;83.00;;;;;;6125253;23;92414;-77
2021/12/31 00:15:33;;;;;;;8.65;2.63;;;14.50;82.90;;;;;;6098922;23;93323;-77
2021/12/31 00:18:00;;;;;;;9.93;2.85;;;14.50;82.80;;;;;;6098355;23;92626;-77
2021/12/31 00:20:28;;;;;;;9.10;2.72;;;14.50;82.80;;;;;;6125042;23;92483;-77
2021/12/31 00:25:30;;;;;;;11.32;3.50;;;14.50;82.70;;;;;;6124969;23;93050;-77
2021/12/31 00:27:57;;;;;;;9.05;2.72;;;14.50;82.70;;;;;;6124437;23;92818;-77
2021/12/31 00:30:25;;;;;;;9.40;3.38;;;14.50;82.60;;;;;;6124596;23;92478;-77
2021/12/31 00:32:52;;;;;;;9.48;2.85;;;14.50;82.50;;;;;;6124810;23;92479;-77
2021/12/31 00:35:19;;;;;;;11.98;3.28;;;14.50;82.50;;;;;;6123010;23;93076;-77
2021/12/31 00:37:46;;;;;;;9.43;2.83;;;14.50;82.40;;;;;;6123710;23;108013;-77
2021/12/31 00:40:16;;;;;;;5.25;2.60;;;14.50;82.20;;;;;;6099467;23;91703;-72
2021/12/31 00:42:43;;;;;;;9.00;3.00;;;14.50;82.10;;;;;;6124587;23;92541;-77
2021/12/31 00:45:13;;;;;;;12.20;3.58;;;14.50;82.20;;;;;;6148175;22;92382;-77
2021/12/31 00:47:40;;;;;;;9.35;3.13;;;14.50;82.20;;;;;;6123185;23;94847;-72
2021/12/31 00:50:08;;;;;;;7.43;2.95;;;14.50;82.10;;;;;;6123311;23;92751;-72
2021/12/31 00:52:35;;;;;;;9.77;2.88;;;14.50;82.00;;;;;;6125001;23;92412;-77
2021/12/31 00:55:04;;;;;;;9.50;3.05;;;14.50;82.10;;;;;;6124752;23;92962;-77
2021/12/31 00:57:31;;;;;;;10.38;3.10;;;14.50;82.10;;;;;;6124825;23;92771;-73
2021/12/31 00:59:58;;;;;;;10.40;2.97;;;14.50;82.00;;;;;;6125405;23;92430;-72
2021/12/31 01:02:27;;;;;;;9.77;2.92;;;14.50;82.00;;;;;;6050271;23;92501;-77
2021/12/31 01:04:56;;;;;;;8.50;2.60;;;14.50;81.90;;;;;;6099360;23;92476;-77
2021/12/31 01:07:23;;;;;;;9.05;3.25;;;14.50;81.90;;;;;;6124807;23;92770;-77
2021/12/31 01:09:50;;;;;;;9.63;2.78;;;14.50;82.10;;;;;;6124741;23;92421;-73
2021/12/31 01:12:17;;;;;;;9.52;2.92;;;14.50;82.20;;;;;;6146756;22;94851;-72
2021/12/31 01:17:37;;;;;;;8.23;2.40;;;14.50;81.80;;;;;;6123054;23;94186;-72
2021/12/31 01:20:05;;;;;;;;;;;14.50;81.80;;;;;;6125282;23;92564;-72
2021/12/31 01:22:33;;;;;;;10.20;2.88;;;14.40;81.60;;;;;;6125876;23;98135;-72
2021/12/31 01:25:02;;;;;;;9.32;2.60;;;14.40;81.90;;;;;;6124485;23;92964;-72
2021/12/31 01:27:30;;;;;;;11.98;3.47;;;14.50;81.90;;;;;;6097885;23;95453;-72
2021/12/31 01:29:57;;;;;;;12.32;2.90;;;14.50;81.90;;;;;;6148407;22;92356;-72
2021/12/31 01:32:24;;;;;;;10.88;3.63;;;14.50;81.90;;;;;;6124908;23;92481;-72
2021/12/31 01:34:51;;;;;;;10.70;3.92;;;14.50;82.00;;;;;;6098267;23;93235;-72
2021/12/31 01:37:18;;;;;;;12.32;3.42;;;14.50;81.70;;;;;;6123103;23;94982;-72
2021/12/31 01:39:45;;;;;;;13.52;3.53;;;14.50;81.60;;;;;;6124621;23;92386;-72
2021/12/31 01:42:13;;;;;;;13.82;3.53;;;14.50;81.70;;;;;;6124686;23;92480;-72
2021/12/31 01:44:43;;;;;;;11.57;3.97;;;14.50;81.70;;;;;;6073284;23;95769;-77
2021/12/31 01:47:15;;;;;;;11.00;3.63;;;14.50;81.80;;;;;;6147573;22;93866;-77
2021/12/31 01:49:55;;;;;;;9.70;3.45;;;14.50;81.70;;;;;;6122762;23;92464;-77
2021/12/31 01:52:23;;;;;;;8.02;3.38;;;14.50;81.70;;;;;;6100741;23;92457;-77
2021/12/31 01:54:51;;;;;;;10.57;3.42;;;14.50;81.90;;;;;;6124431;23;92470;-77
2021/12/31 01:57:20;;;;;;;8.52;3.28;;;14.50;81.70;;;;;;6124600;23;92835;-77
2021/12/31 01:59:47;;;;;;;12.32;3.20;;;14.50;81.70;;;;;;6123797;23;102220;-77
2021/12/31 02:02:15;;;;;;;13.40;4.07;;;14.50;81.80;;;;;;6096633;23;94817;-77
2021/12/31 02:04:42;;;;;;;13.30;3.55;;;14.50;81.80;;;;;;6122870;23;92925;-77
2021/12/31 02:07:09;;;;;;;14.48;3.70;;;14.60;81.70;;;;;;6124111;23;92747;-77
2021/12/31 02:09:44;;;;;;;11.07;3.85;;;14.50;81.70;;;;;;6122779;23;92506;-72
2021/12/31 02:12:11;;;;;;;12.32;3.53;;;14.50;81.70;;;;;;6124330;23;92415;-72
2021/12/31 02:14:39;;;;;;;12.05;3.63;;;14.50;81.70;;;;;;6122256;23;95674;-69
2021/12/31 02:17:08;;;;;;;11.45;3.50;;;14.50;81.80;;;;;;6123969;23;92945;-72
2021/12/31 02:19:35;;;;;;;12.18;3.25;;;14.60;81.70;;;;;;6098011;23;91775;-72
2021/12/31 02:22:03;;;;;;;10.85;3.50;;;14.50;81.80;;;;;;6124229;23;92501;-72
2021/12/31 02:24:30;;;;;;;11.38;3.22;;;14.50;81.70;;;;;;6124142;23;92957;-70
2021/12/31 02:26:58;;;;;;;9.07;3.42;;;14.50;81.70;;;;;;6122420;23;94861;-71
2021/12/31 02:29:25;;;;;;;10.57;3.67;;;14.60;81.80;;;;;;6098209;23;92448;-71
2021/12/31 02:31:53;;;;;;;7.00;3.35;;;14.60;81.80;;;;;;6123336;23;102485;-70
2021/12/31 02:34:21;;;;;;;11.00;3.35;;;14.60;81.80;;;;;;6147386;22;93250;-70
2021/12/31 02:36:50;;;;;;;10.20;3.67;;;14.60;82.30;;;;;;6124304;23;92678;-70
2021/12/31 02:39:16;;;;;;;8.45;3.40;;;14.60;81.80;;;;;;6098883;23;92887;-71
2021/12/31 02:41:44;;;;;;;6.95;3.03;;;14.60;81.80;;;;;;6098346;23;92481;-70
2021/12/31 02:44:11;;;;;;;9.82;3.30;;;14.60;82.10;;;;;;6124473;23;92238;-70
2021/12/31 02:46:38;;;;;;;7.15;3.25;;;14.60;81.60;;;;;;6097968;23;92424;-70
2021/12/31 02:49:05;;;;;;;6.47;3.42;;;14.60;81.60;;;;;;6123930;23;92434;-70
2021/12/31 02:51:33;;;;;;;9.80;3.45;;;14.70;81.70;;;;;;6123337;23;95595;-70
2021/12/31 02:54:06;;;;;;;10.18;3.65;;;14.70;81.70;;;;;;6098170;23;93098;-70
2021/12/31 02:56:33;;;;;;;7.60;3.83;;;14.70;81.60;;;;;;6124406;23;92630;-72
2021/12/31 02:59:01;;;;;;;7.68;3.38;;;14.70;81.60;;;;;;6122607;23;92391;-70
2021/12/31 03:01:27;;;;;;;7.75;3.83;;;14.70;81.60;;;;;;6098204;23;92468;-70
2021/12/31 03:03:56;;;;;;;9.80;3.97;;;14.70;81.60;;;;;;6122535;23;92957;-70
2021/12/31 03:06:23;;;;;;;6.80;4.05;;;14.70;81.60;;;;;;6124194;23;92898;-70
2021/12/31 03:08:54;;;;;;;5.22;3.83;;;14.70;81.60;;;;;;6124876;23;91615;-70
2021/12/31 03:11:22;;;;;;;6.35;3.60;;;14.70;81.60;;;;;;6097667;23;92438;-70
2021/12/31 03:13:54;;;;;;;6.55;3.85;;;14.70;81.80;;;;;;6098188;23;92496;-70
2021/12/31 03:16:22;;;;;;;8.95;5.00;;;14.80;81.70;;;;;;6096141;23;95544;-70
2021/12/31 03:18:50;;;;;;;10.35;4.85;;;14.70;81.70;;;;;;6124457;23;92419;-70
2021/12/31 03:21:22;;;;;;;10.80;4.75;;;14.70;81.80;;;;;;6124088;23;92441;-70
2021/12/31 03:23:54;;;;;;;7.88;5.15;;;14.80;81.90;;;;;;6124167;23;93832;-70
2021/12/31 03:26:21;;;;;;;11.85;4.80;;;14.70;81.90;;;;;;6124056;23;92861;-75
2021/12/31 03:28:49;;;;;;;11.60;4.97;;;14.70;82.10;;;;;;6098101;23;92432;-75
2021/12/31 03:31:16;;;;;;;7.80;5.47;;;14.70;82.10;;;;;;6123896;23;92317;-76
2021/12/31 03:33:43;;;;;;;6.95;5.35;;;14.70;82.20;;;;;;6123038;23;92739;-76
2021/12/31 03:36:11;;;;;;;10.02;6.10;;;14.70;82.30;;;;;;6097541;23;92452;-76
2021/12/31 03:38:38;;;;;;;9.18;5.38;;;14.70;82.20;;;;;;6098001;23;92479;-76
2021/12/31 03:41:05;;;;;;;7.80;5.05;;;14.70;82.30;;;;;;6071225;23;94888;-76
2021/12/31 03:43:32;;;;;;;7.80;5.25;;;14.70;82.40;;;;;;6123591;23;92937;-76
2021/12/31 03:45:59;;;;;;;10.90;5.93;;;14.70;82.20;;;;;;6096061;23;114313;-76
2021/12/31 03:48:26;;;;;;;9.75;5.65;;;14.70;82.30;;;;;;6042836;23;92624;-76
2021/12/31 03:50:52;;;;;;;7.40;5.07;;;14.70;82.20;;;;;;6093894;23;92435;-76
2021/12/31 03:53:20;;;;;;;11.65;5.53;;;14.70;82.20;;;;;;6091946;23;92944;-76
2021/12/31 03:55:47;;;;;;;7.47;5.57;;;14.70;82.80;;;;;;6067530;23;93878;-76
2021/12/31 03:58:14;;;;;;;8.15;5.38;;;14.70;82.20;;;;;;6094177;23;91624;-76
2021/12/31 04:00:42;;;;;;;9.07;5.07;;;14.70;82.00;;;;;;6092466;23;93132;-76
2021/12/31 04:03:11;;;;;;;11.55;5.70;;;14.70;82.30;;;;;;6093176;23;94271;-76
2021/12/31 04:05:40;;;;;;;10.07;4.57;;;14.70;82.00;;;;;;6093295;23;94935;-71
2021/12/31 04:08:08;;;;;;;7.32;5.72;;;14.70;81.90;;;;;;6095066;23;92406;-71
2021/12/31 04:10:35;;;;;;;7.30;3.78;;;14.70;81.80;;;;;;6093938;23;93001;-70
2021/12/31 04:13:03;;;;;;;7.90;4.47;;;14.80;81.80;;;;;;6095064;23;93104;-71
2021/12/31 04:15:30;;;;;;;8.07;4.47;;;14.70;81.90;;;;;;6093791;23;92597;-70
2021/12/31 04:17:57;;;;;;;7.63;4.80;;;14.70;81.80;;;;;;6094073;23;92943;-70
2021/12/31 04:20:45;;;;;;;7.35;4.75;;;14.70;82.00;;;;;;6044904;23;92499;-70
2021/12/31 04:23:28;;;;;;;7.60;4.68;;;14.70;81.90;;;;;;6094002;23;92250;-70
2021/12/31 04:25:56;;;;;;;9.97;4.83;;;14.70;82.00;;;;;;6095208;23;92451;-70
2021/12/31 04:28:25;;;;;;;4.90;4.28;;;14.70;82.10;;;;;;6092892;23;92448;-70
2021/12/31 04:30:52;;;;;;;7.88;4.97;;;14.70;82.10;;;;;;6116709;23;94905;-71
2021/12/31 04:33:20;;;;;;;8.35;4.82;;;14.70;82.10;;;;;;6068504;23;94150;-71
2021/12/31 04:35:47;;;;;;;7.18;5.10;;;14.70;82.10;;;;;;6093300;23;92902;-71
2021/12/31 04:38:13;;;;;;;8.55;5.20;;;14.80;82.20;;;;;;6118534;23;92812;-70
2021/12/31 04:40:41;;;;;;;7.35;4.85;;;14.70;82.00;;;;;;6093970;23;92510;-70
2021/12/31 04:43:08;;;;;;;6.53;5.28;;;14.70;82.00;;;;;;6093035;23;106816;-70
2021/12/31 04:45:35;;;;;;;10.07;5.63;;;14.70;82.10;;;;;;6069404;23;92767;-70
2021/12/31 04:48:02;;;;;;;8.30;5.38;;;14.70;82.10;;;;;;6096804;23;91687;-70
2021/12/31 04:50:29;;;;;;;9.20;5.38;;;14.80;82.10;;;;;;6098267;23;93021;-70
2021/12/31 04:52:56;;;;;;;9.18;5.88;;;14.70;82.00;;;;;;6123110;23;95626;-70
2021/12/31 04:55:24;;;;;;;11.10;5.63;;;14.70;82.10;;;;;;6121433;23;95608;-69
2021/12/31 04:57:50;;;;;;;9.32;5.70;;;14.70;82.00;;;;;;6099005;23;92349;-70
2021/12/31 05:00:17;;;;;;;8.50;6.07;;;14.80;82.10;;;;;;6073863;23;92481;-72
2021/12/31 05:02:45;;;;;;;6.78;6.05;;;14.70;81.90;;;;;;6125056;23;93003;-70
2021/12/31 05:05:12;;;;;;;6.70;5.15;;;14.70;82.00;;;;;;6122868;23;94175;-70
2021/12/31 05:07:39;;;;;;;10.60;6.10;;;14.70;81.90;;;;;;6098513;23;92424;-70
2021/12/31 05:10:07;;;;;;;8.00;5.70;;;14.80;82.00;;;;;;6124991;23;92494;-70
2021/12/31 05:12:37;;;;;;;6.53;5.57;;;14.80;81.90;;;;;;6099544;23;92425;-70
2021/12/31 05:15:07;;;;;;;7.53;4.90;;;14.70;81.90;;;;;;6146972;22;110340;-70
2021/12/31 05:17:35;;;;;;;10.05;5.60;;;14.70;81.80;;;;;;6124877;23;92378;-70
2021/12/31 05:20:04;;;;;;;9.15;5.28;;;14.70;81.90;;;;;;6072529;23;94912;-70
2021/12/31 05:22:31;;;;;;;6.43;5.32;;;14.70;81.70;;;;;;6124447;23;95174;-69
2021/12/31 05:24:58;;;;;;;7.55;4.95;;;14.70;81.70;;;;;;6125050;23;92785;-70
2021/12/31 05:27:25;;;;;;;4.85;3.90;;;14.80;81.80;;;;;;6098476;23;92391;-70
2021/12/31 05:29:51;;;;;;;7.05;4.47;;;14.70;81.60;;;;;;6124798;23;92467;-70
2021/12/31 05:32:18;;;;;;;7.15;4.60;;;14.70;81.60;;;;;;6098521;23;93371;-71
2021/12/31 05:34:45;;;;;;;6.00;3.92;;;14.70;81.60;;;;;;6124707;23;92656;-70
2021/12/31 05:37:12;;;;;;;5.45;3.70;;;14.70;81.60;;;;;;6125500;23;91649;-71
2021/12/31 05:39:39;;;;;;;6.28;3.75;;;14.70;81.60;;;;;;6098646;23;97592;-70
2021/12/31 05:42:06;;;;;;;6.70;4.30;;;14.70;81.60;;;;;;6098321;23;97657;-70
2021/12/31 05:44:33;;;;;;;7.72;3.70;;;14.70;81.40;;;;;;6122823;23;94844;-70
2021/12/31 05:47:00;;;;;;;6.25;3.15;;;14.80;81.30;;;;;;6098290;23;92446;-71
2021/12/31 05:49:28;;;;;;;5.43;3.72;;;14.70;81.20;;;;;;6124149;23;94286;-71
2021/12/31 05:51:56;;;;;;;10.57;4.30;;;14.70;81.20;;;;;;6098810;23;92984;-71
2021/12/31 05:54:22;;;;;;;4.15;3.33;;;14.70;81.10;;;;;;6123925;23;100394;-71
2021/12/31 05:56:51;;;;;;;5.63;3.10;;;14.70;81.10;;;;;;6124972;23;92513;-71
2021/12/31 05:59:18;;;;;;;6.78;3.25;;;14.70;81.00;;;;;;6098720;23;92447;-71
2021/12/31 06:01:46;;;;;;;6.13;3.65;;;14.70;80.90;;;;;;6124909;23;92333;-70
2021/12/31 06:04:14;;;;;;;7.40;3.65;;;14.70;80.90;;;;;;6098563;23;92559;-71
2021/12/31 06:06:42;;;;;;;5.30;3.20;;;14.60;81.10;;;;;;6124512;23;92434;-70
2021/12/31 06:09:12;;;;;;;4.38;3.20;;;14.60;81.00;;;;;;6122866;23;95559;-70
2021/12/31 06:11:42;;;;;;;4.53;2.90;;;14.60;81.00;;;;;;6147441;22;93037;-70
2021/12/31 06:14:10;;;;;;;5.00;2.70;;;14.60;80.80;;;;;;6124527;23;92816;-70
2021/12/31 06:16:42;;;;;;;6.68;3.30;;;14.60;80.70;;;;;;6124275;23;92441;-71
2021/12/31 06:19:12;;;;;;;6.32;2.88;;;14.70;80.60;;;;;;6099610;23;92805;-70
2021/12/31 06:21:41;;;;;;;5.50;2.90;;;14.70;80.30;;;;;;6147414;22;93017;-70
2021/12/31 06:24:09;;;;;;;4.47;2.63;;;14.70;80.40;;;;;;6124499;23;92591;-70
2021/12/31 06:26:37;;;;;;;3.60;2.80;;;14.60;80.30;;;;;;6122030;23;94170;-70
2021/12/31 06:29:04;;;;;;;5.85;3.30;;;14.60;80.30;;;;;;6124559;23;92419;-70
2021/12/31 06:31:31;;;;;;;7.38;2.75;;;14.60;80.20;;;;;;6124192;23;93107;-71
2021/12/31 06:33:58;;;;;;;5.72;2.22;;;14.60;80.00;;;;;;6123009;23;94759;-70
2021/12/31 06:36:25;;;;;;;4.40;2.38;;;14.60;80.10;;;;;;6122688;23;92796;-70
2021/12/31 06:38:52;;;;;;;3.65;2.20;;;14.60;80.60;;;;;;6098030;23;99355;-71
2021/12/31 06:41:20;;;;;;;6.47;2.80;;;14.60;79.80;;;;;;6122250;23;94075;-70
2021/12/31 06:43:47;;;;;;;4.07;2.25;;;14.70;79.70;;;;;;6122694;23;93147;-70
2021/12/31 06:46:15;;;;;;;7.03;2.50;;;14.70;79.60;;;;;;6123650;23;99763;-70
2021/12/31 06:48:42;;;;;;;9.48;4.00;;;14.70;79.40;;;;;;6123577;23;92382;-70
2021/12/31 06:51:10;;;;;;;4.13;2.55;;;14.70;79.30;;;;;;6124671;23;92182;-70
2021/12/31 06:53:38;;;;;;;9.70;3.47;;;14.70;79.20;;;;;;6097296;23;93125;-70
2021/12/31 06:56:05;;;;;;;7.05;2.70;;;14.70;79.80;;;;;;6124546;23;92472;-70
2021/12/31 06:58:32;;;;;;;8.77;2.97;;;14.70;79.10;;;;;;6122340;23;95050;-70
2021/12/31 07:00:59;;;;;;;8.90;2.95;;;14.70;79.20;;;;;;6097848;23;92935;-75
2021/12/31 07:03:26;;;;;;;5.57;3.10;;;14.70;79.70;;;;;;6121847;23;92738;-76
2021/12/31 07:05:53;;;;;;;6.22;2.45;;;14.70;79.00;;;;;;6124136;23;92367;-75
2021/12/31 07:08:24;;;;;;;5.57;2.45;;;14.70;78.90;;;;;;6124056;23;92442;-75
2021/12/31 07:10:51;;;;;;;5.10;2.63;;;14.70;78.90;;;;;;6072947;23;96450;-75
2021/12/31 07:13:18;;;;;;;8.45;2.90;;;14.70;79.10;;;;;;6124188;23;92809;-76
2021/12/31 07:15:48;;;;;;;4.72;2.97;;;14.70;78.70;;;;;;6123601;23;101729;-75
2021/12/31 07:18:17;;;;;;;5.90;2.70;;;14.70;78.90;;;;;;6122329;23;92504;-76
2021/12/31 07:20:44;;;;;;;7.07;3.70;;;14.60;78.80;;;;;;6121431;23;94850;-75
2021/12/31 07:23:14;;;;;;;9.25;3.20;;;14.60;79.10;;;;;;6122221;23;94832;-75
2021/12/31 07:25:41;;;;;;;6.57;3.00;;;14.50;79.10;;;;;;6121652;23;92455;-75
2021/12/31 07:28:09;;;;;;;11.07;4.20;;;14.50;79.30;;;;;;6123946;23;93137;-75
2021/12/31 07:30:37;;;;;;;4.10;2.45;;;14.40;79.30;;;;;;6123556;23;92409;-75
2021/12/31 07:33:05;;;;;;;4.20;2.75;;;14.40;79.50;;;;;;6123553;23;92779;-75
2021/12/31 07:35:32;;;;;;;6.70;3.42;;;14.40;79.50;;;;;;6072654;23;92447;-75
2021/12/31 07:38:00;;;;;;;10.77;3.88;;;14.30;79.60;;;;;;6124116;23;92506;-75
2021/12/31 07:40:41;;;;;;;6.93;3.47;;;14.30;79.50;;;;;;6124201;23;91798;-75
2021/12/31 07:43:10;;;;;;;13.88;4.05;;;14.30;79.50;;;;;;6125182;23;94549;-76
2021/12/31 07:45:37;;;;;;;8.48;3.80;;;14.40;79.50;;;;;;6123411;23;92952;-75
2021/12/31 07:48:05;;;;;;;7.97;3.30;;;14.40;79.50;;;;;;6123543;23;98469;-76
2021/12/31 07:50:33;;;;;;;7.45;3.13;;;14.30;79.40;;;;;;6098178;23;94072;-76
2021/12/31 07:53:00;;;;;;;6.63;3.38;;;14.30;79.60;;;;;;6125129;23;92602;-76
2021/12/31 07:55:27;;;;;;;5.72;2.78;;;14.30;79.60;;;;;;6125294;23;92490;-75
2021/12/31 07:57:54;;;;;;;6.38;3.55;;;14.30;79.40;;;;;;6098444;23;93727;-75
2021/12/31 08:00:21;;;;;;;4.00;2.78;;;14.30;79.50;;;;;;6125375;23;92943;-76
2021/12/31 08:02:49;;;;;;;5.22;3.05;;;14.20;79.60;;;;;;6098347;23;93997;-76
2021/12/31 08:05:16;;;;;;;5.53;3.00;;;14.20;79.70;;;;;;6125831;23;91760;-76
2021/12/31 08:07:43;;;;;;;4.30;2.97;;;14.20;79.70;;;;;;6125140;23;92438;-76
2021/12/31 08:10:10;;;;;;;8.10;3.50;;;14.20;79.60;;;;;;6099108;23;92928;-75
2021/12/31 08:12:50;;;;;;;7.57;3.42;;;14.20;79.60;;;;;;6123641;23;94776;-75
2021/12/31 08:15:17;;;;;;;6.03;2.80;;;14.20;79.70;;;;;;6125337;23;92651;-75
2021/12/31 08:17:44;;;;;;;7.57;3.35;;;14.30;79.80;;;;;;6124562;23;101192;-76
2021/12/31 08:20:11;;;;;;;4.38;2.83;;;14.30;79.60;;;;;;6125194;23;92535;-75
2021/12/31 08:22:38;;;;;;;10.43;4.75;;;14.30;79.30;;;;;;6099031;23;92677;-76
2021/12/31 08:25:06;;;;;;;6.78;3.80;;;14.40;79.30;;;;;;6123686;23;92420;-76
2021/12/31 08:27:36;;;;;;;5.75;3.38;;;14.40;79.20;;;;;;6098857;23;92717;-70
2021/12/31 08:30:03;;;;;;;7.00;3.63;;;14.50;79.10;;;;;;6123673;23;94891;-71
2021/12/31 08:32:30;;;;;;;5.95;3.85;;;14.50;79.00;;;;;;6123301;23;93427;-71
2021/12/31 08:34:57;;;;;;;5.53;3.05;;;14.60;78.70;;;;;;6098635;23;92505;-71
2021/12/31 08:37:28;;;;;;;5.88;3.05;;;14.60;78.70;;;;;;6098655;23;94813;-71
2021/12/31 08:39:57;;;;;;;5.30;3.00;;;14.60;78.50;;;;;;6124967;23;93088;-71
2021/12/31 08:42:25;;;;;;;7.32;3.85;;;14.60;78.20;;;;;;6125065;23;92775;-72
2021/12/31 08:44:53;;;;;;;13.00;7.68;;;14.70;78.00;;;;;;6147792;22;92308;-72
2021/12/31 08:47:21;;;;;;;5.43;3.45;;;14.70;77.90;;;;;;6125400;23;92712;-71
2021/12/31 08:49:49;;;;;;;6.68;4.18;;;14.70;78.00;;;;;;6122341;23;93087;-72
2021/12/31 08:52:16;;;;;;;10.68;5.40;;;14.70;77.90;;;;;;6124615;23;97628;-72
2021/12/31 08:54:43;;;;;;;7.20;3.65;;;14.60;78.00;;;;;;6125218;23;92086;-72
2021/12/31 08:57:10;;;;;;;11.68;5.68;;;14.60;78.00;;;;;;6098515;23;92547;-72
2021/12/31 08:59:37;;;;;;;14.95;7.07;;;14.60;77.80;;;;;;6098709;23;92978;-72
2021/12/31 09:02:04;;;;;;;6.65;3.10;;;14.60;78.00;;;;;;6122773;23;94855;-72
2021/12/31 09:04:31;;;;;;;4.03;2.65;;;14.60;77.90;;;;;;6074184;23;92678;-72
2021/12/31 09:06:58;;;;;;;5.30;3.67;;;14.60;78.00;;;;;;6124355;23;92460;-72
2021/12/31 09:09:25;;;;;;;10.40;5.50;;;14.70;78.00;;;;;;6124359;23;93215;-72
2021/12/31 09:11:54;;;;;;;6.22;3.13;;;14.70;77.80;;;;;;6123869;23;94684;-72
2021/12/31 09:14:21;;;;;;;6.88;3.40;;;14.80;77.70;;;;;;6098886;23;92485;-72
2021/12/31 09:16:50;;;;;;;8.63;3.72;;;14.80;77.70;;;;;;6124206;23;92360;-72
2021/12/31 09:19:17;;;;;;;3.97;3.58;;;14.80;77.50;;;;;;6124940;23;92254;-71
2021/12/31 09:21:44;;;;;;;8.82;4.00;;;14.80;77.40;;;;;;6124238;23;92455;-72
2021/12/31 09:24:11;;;;;;;3.50;2.92;;;14.90;77.40;;;;;;6124481;23;92405;-72
2021/12/31 09:26:38;;;;;;;7.72;3.75;;;14.90;77.20;;;;;;6123246;23;95187;-72
2021/12/31 09:29:05;;;;;;;3.90;3.00;;;14.90;77.90;;;;;;6124311;23;92616;-72
2021/12/31 09:31:32;;;;;;;4.40;2.97;;;14.90;77.30;;;;;;6098171;23;92496;-72
2021/12/31 09:33:59;;;;;;;3.80;2.90;;;14.90;77.30;;;;;;6098046;23;92615;-72
2021/12/31 09:36:28;;;;;;;5.22;3.60;;;14.90;77.20;;;;;;6124693;23;92911;-72
2021/12/31 09:38:55;;;;;;;5.28;3.28;;;14.90;77.20;;;;;;6124395;23;93071;-70
2021/12/31 09:41:22;;;;;;;3.42;2.97;;;14.90;77.20;;;;;;6097900;23;94009;-73
2021/12/31 09:43:52;;;;;;;5.65;3.65;;;14.90;77.00;;;;;;6124997;23;91694;-72
2021/12/31 09:46:19;;;;;;;6.65;3.30;;;15.00;77.00;;;;;;6098781;23;92748;-71
2021/12/31 09:48:47;;;;;;;4.03;3.50;;;15.00;76.80;;;;;;6097768;23;94091;-72
2021/12/31 09:51:14;;;;;;;5.72;2.90;;;15.00;76.80;;;;;;6122816;23;94835;-71
2021/12/31 09:53:41;;;;;;;6.90;2.90;;;15.10;76.60;;;;;;6125249;23;92790;-72
2021/12/31 09:56:09;;;;;;;5.88;3.83;;;15.10;76.50;;;;;;6124636;23;92465;-72
2021/12/31 09:58:36;;;;;;;5.40;3.15;;;15.20;76.50;;;;;;6124086;23;108248;-72
2021/12/31 10:01:04;;;;;;;6.80;4.00;;;15.20;76.20;;;;;;6124111;23;92725;-71
2021/12/31 10:03:34;;;;;;;7.05;3.85;;;15.30;76.10;;;;;;6123965;23;92383;-72
2021/12/31 10:06:12;;;;;;;4.90;2.90;;;15.30;76.00;;;;;;6098112;23;92723;-72
2021/12/31 10:08:44;;;;;;;5.20;3.45;;;15.30;75.70;;;;;;6125141;23;92320;-72
2021/12/31 10:11:20;;;;;;;4.88;2.97;;;15.30;76.20;;;;;;6147220;22;92597;-72
2021/12/31 10:13:56;;;;;;;5.72;3.30;;;15.20;76.10;;;;;;6124627;23;92355;-72
2021/12/31 10:16:26;;;;;;;5.63;3.70;;;15.20;76.40;;;;;;6122919;23;94683;-72
2021/12/31 10:19:05;;;;;;;4.57;3.38;;;15.10;76.30;;;;;;6123909;23;93087;-72
2021/12/31 10:21:46;;;;;;;6.03;3.47;;;15.10;76.30;;;;;;6124211;23;93204;-72
2021/12/31 10:24:32;;;;;;;7.63;4.43;;;15.10;76.60;;;;;;6124374;23;92606;-71
2021/12/31 10:27:02;;;;;;;5.95;3.33;;;15.10;76.70;;;;;;6124104;23;92345;-72
2021/12/31 10:29:30;;;;;;;4.53;4.13;;;15.00;77.20;;;;;;6097654;23;94364;-72
2021/12/31 10:31:58;;;;;;;4.40;3.00;;;15.00;76.70;;;;;;6072673;23;94075;-72
2021/12/31 10:34:41;;;;;;;5.53;3.40;;;15.00;76.80;;;;;;6124618;23;91631;-72
2021/12/31 10:37:19;;;;;;;8.75;4.80;;;15.20;76.50;;;;;;6123929;23;92390;-72
2021/12/31 10:39:59;;;;;;;10.02;4.85;;;15.20;76.40;;;;;;6124032;23;93130;-72
2021/12/31 10:42:31;;;;;;;6.35;3.97;;;15.20;76.20;;;;;;6122446;23;94871;-72
2021/12/31 10:45:02;;;;;;;4.93;3.67;;;15.20;76.10;;;;;;6098076;23;92458;-72
2021/12/31 10:47:37;;;;;;;7.85;3.83;;;15.20;76.10;;;;;;6147618;22;92335;-72
2021/12/31 10:50:04;;;;;;;9.98;4.78;;;15.10;76.10;;;;;;6123220;23;93014;-72
2021/12/31 10:52:40;;;;;;;5.85;3.35;;;15.10;76.30;;;;;;6123918;23;92744;-72
2021/12/31 10:55:24;;;;;;;6.47;3.85;;;15.10;76.20;;;;;;6123890;23;92366;-72
2021/12/31 10:57:57;;;;;;;7.82;3.88;;;15.10;76.30;;;;;;6097831;23;92562;-72
2021/12/31 11:00:37;;;;;;;5.78;3.65;;;15.10;76.60;;;;;;6122543;23;98803;-70
2021/12/31 11:03:05;;;;;;;7.57;3.65;;;15.00;76.60;;;;;;6123587;23;92389;-71
2021/12/31 11:05:34;;;;;;;7.25;3.85;;;15.00;76.70;;;;;;6097740;23;92498;-70
2021/12/31 11:08:04;;;;;;;9.52;4.45;;;15.00;76.60;;;;;;6122177;23;94784;-70
2021/12/31 11:10:37;;;;;;;6.82;3.97;;;15.00;76.70;;;;;;6096909;23;96037;-71
2021/12/31 11:13:17;;;;;;;6.30;3.88;;;15.00;76.90;;;;;;6123550;23;92839;-70
2021/12/31 11:15:46;;;;;;;8.50;5.85;;;15.00;76.80;;;;;;6098835;23;92465;-71
2021/12/31 11:18:18;;;;;;;5.70;4.60;;;15.00;77.00;;;;;;6125161;23;92750;-71
2021/12/31 11:20:47;;;;;;;6.75;4.28;;;15.00;77.00;;;;;;6125067;23;94009;-71
2021/12/31 11:23:14;;;;;;;6.68;4.88;;;15.10;77.00;;;;;;6147733;22;92981;-71
2021/12/31 11:25:51;;;;;;;6.10;4.15;;;15.10;77.10;;;;;;6100063;23;91778;-71
2021/12/31 11:28:48;;;;;;;5.30;4.72;;;15.20;77.20;;;;;;6098155;23;92497;-71
2021/12/31 11:31:20;;;;;;;8.13;4.82;;;15.10;77.50;;;;;;6124847;23;93203;-71
2021/12/31 11:34:12;;;;;;;11.85;7.05;;;15.10;78.30;;;;;;6122018;23;95322;-70
2021/12/31 11:36:43;;;;;;;7.28;5.20;;;15.10;78.70;;;;;;6113161;23;92518;-70
2021/12/31 11:39:22;;;;;;;6.25;4.18;;;15.00;79.00;;;;;;6123471;23;92765;-71
2021/12/31 11:41:52;;;;;;;11.80;10.80;;;15.00;79.10;;;;;;6125046;23;93733;-71
2021/12/31 11:44:23;;;;;;;15.02;13.43;;;14.90;79.30;;;;;;6122249;23;93085;-70
2021/12/31 11:46:51;;;;;;;9.73;5.80;;;14.90;79.30;;;;;;6074747;23;92544;-71
2021/12/31 11:49:26;;;;;;;5.95;4.30;;;14.90;79.20;;;;;;6097863;23;92424;-71
2021/12/31 11:52:06;;;;;;;6.45;4.97;;;14.90;79.40;;;;;;6125393;23;92803;-71
2021/12/31 11:54:35;;;;;;;6.72;4.68;;;15.00;79.50;;;;;;6124859;23;92803;-70
2021/12/31 11:57:05;;;;;;;6.10;5.50;;;14.90;79.80;;;;;;6125105;23;92564;-71
2021/12/31 11:59:35;;;;;;;7.18;4.72;;;14.90;79.80;;;;;;6121129;23;94834;-71
2021/12/31 12:02:09;;;;;;;8.18;5.05;;;14.80;80.00;;;;;;6097868;23;95892;-71
2021/12/31 12:04:41;;;;;;;6.78;5.28;;;14.80;80.00;;;;;;6124780;23;92855;-70
2021/12/31 12:07:29;;;;;;;7.28;4.65;;;14.80;80.00;;;;;;6099303;23;94882;-71
2021/12/31 12:09:56;;;;;;;8.43;4.97;;;14.80;80.10;;;;;;6125037;23;92493;-71
2021/12/31 12:12:23;;;;;;;6.93;5.40;;;14.70;80.10;;;;;;6124288;23;92941;-70
2021/12/31 12:14:53;;;;;;;6.85;4.85;;;14.70;80.00;;;;;;6122602;23;93988;-71
2021/12/31 12:17:29;;;;;;;11.60;5.53;;;14.70;79.90;;;;;;6098989;23;91893;-70
2021/12/31 12:20:02;;;;;;;8.73;5.72;;;14.80;80.40;;;;;;6124848;23;92400;-71
2021/12/31 12:22:33;;;;;;;8.50;6.18;;;14.70;81.10;;;;;;6124430;23;92508;-70
2021/12/31 12:25:06;;;;;;;10.73;6.90;;;14.60;81.80;;;;;;6122890;23;94799;-70
2021/12/31 12:27:33;;;;;;;11.15;7.07;;;14.60;82.20;;;;;;6125022;23;92389;-71
2021/12/31 12:30:05;;;;;;;9.32;6.65;;;14.50;83.20;;;;;;6123747;23;92438;-70
2021/12/31 12:35:18;;;;;;;11.63;7.20;;;14.30;83.90;;;;;;6125015;23;92679;-71
2021/12/31 12:37:55;;;;;;;10.85;6.82;;;14.30;84.20;;;;;;6148335;22;92403;-71
2021/12/31 12:40:47;;;;;;;10.60;7.25;;;14.20;84.20;;;;;;6124863;23;92472;-71
2021/12/31 12:43:46;;;;;;;9.25;6.10;;;14.20;84.30;;;;;;6123101;23;92507;-71
2021/12/31 12:46:16;;;;;;;9.13;6.10;;;14.20;84.40;;;;;;6085167;23;98191;-70
2021/12/31 12:48:50;;;;;;;7.30;6.22;;;14.20;84.50;;;;;;6124917;23;92376;-70
2021/12/31 12:51:31;;;;;;;8.27;5.75;;;14.20;84.60;;;;;;6122947;23;94775;-71
2021/12/31 12:54:02;;;;;;;6.95;5.30;;;14.20;84.50;;;;;;6098709;23;93003;-71
2021/12/31 12:56:29;;;;;;;7.70;6.03;;;14.10;84.60;;;;;;6124204;23;92928;-71
2021/12/31 12:59:03;;;;;;;6.75;5.68;;;14.10;84.80;;;;;;6097608;23;92494;-71
2021/12/31 13:01:46;;;;;;;6.88;6.05;;;14.10;84.90;;;;;;6124651;23;92358;-71
2021/12/31 13:04:15;;;;;;;8.20;6.22;;;14.10;84.80;;;;;;6099016;23;96093;-72